sensor_id;sensor_type;location;lat;lon;timestamp;temperature;humidity
64652;HTU21D;51062;45.120;37.660;2023-05-16T00:00:46;11.12;61.53
64652;HTU21D;51062;45.120;37.660;2023-05-16T00:03:13;11.10;61.55
64652;HTU21D;51062;45.120;37.660;2023-05-16T00:05:39;11.05;61.61
64652;HTU21D;51062;45.120;37.660;2023-05-16T00:08:06;11.03;61.67
64652;HTU21D;51062;45.120;37.660;2023-05-16T00:10:31;11.01;61.72
64652;HTU21D;51062;45.120;37.660;2023-05-16T00:12:58;11.02;61.73
64652;HTU21D;51062;45.120;37.660;2023-05-16T00:15:26;11.01;61.73
64652;HTU21D;51062;45.120;37.660;2023-05-16T00:17:55;11.01;61.65
64652;HTU21D;51062;45.120;37.660;2023-05-16T00:20:25;11.00;61.66
64652;HTU21D;51062;45.120;37.660;2023-05-16T00:22:53;11.00;61.60
64652;HTU21D;51062;45.120;37.660;2023-05-16T00:25:19;10.99;61.66
64652;HTU21D;51062;45.120;37.660;2023-05-16T00:27:46;10.98;61.75
64652;HTU21D;51062;45.120;37.660;2023-05-16T00:30:12;10.99;61.76
64652;HTU21D;51062;45.120;37.660;2023-05-16T00:32:38;11.00;61.77
64652;HTU21D;51062;45.120;37.660;2023-05-16T00:35:06;10.99;61.79
64652;HTU21D;51062;45.120;37.660;2023-05-16T00:37:35;10.98;61.83
64652;HTU21D;51062;45.120;37.660;2023-05-16T00:40:01;10.97;61.85
64652;HTU21D;51062;45.120;37.660;2023-05-16T00:42:28;10.98;61.91
64652;HTU21D;51062;45.120;37.660;2023-05-16T00:44:54;10.98;61.90
64652;HTU21D;51062;45.120;37.660;2023-05-16T00:47:20;10.98;61.87
64652;HTU21D;51062;45.120;37.660;2023-05-16T00:49:46;10.99;61.87
64652;HTU21D;51062;45.120;37.660;2023-05-16T00:52:12;10.98;61.89
64652;HTU21D;51062;45.120;37.660;2023-05-16T00:54:39;10.99;61.89
64652;HTU21D;51062;45.120;37.660;2023-05-16T00:57:05;10.96;61.92
64652;HTU21D;51062;45.120;37.660;2023-05-16T00:59:32;10.95;61.98
64652;HTU21D;51062;45.120;37.660;2023-05-16T01:01:58;10.95;62.00
64652;HTU21D;51062;45.120;37.660;2023-05-16T01:04:25;10.94;61.98
64652;HTU21D;51062;45.120;37.660;2023-05-16T01:06:54;10.88;62.03
64652;HTU21D;51062;45.120;37.660;2023-05-16T01:09:21;10.86;62.09
64652;HTU21D;51062;45.120;37.660;2023-05-16T01:15:20;10.83;62.15
64652;HTU21D;51062;45.120;37.660;2023-05-16T01:18:02;10.81;62.14
64652;HTU21D;51062;45.120;37.660;2023-05-16T01:20:42;10.80;62.14
64652;HTU21D;51062;45.120;37.660;2023-05-16T01:23:32;10.79;62.11
64652;HTU21D;51062;45.120;37.660;2023-05-16T01:26:18;10.75;62.16
64652;HTU21D;51062;45.120;37.660;2023-05-16T01:28:45;10.70;62.20
64652;HTU21D;51062;45.120;37.660;2023-05-16T01:31:12;10.66;62.28
64652;HTU21D;51062;45.120;37.660;2023-05-16T01:33:39;10.60;62.39
64652;HTU21D;51062;45.120;37.660;2023-05-16T01:39:32;10.53;62.54
64652;HTU21D;51062;45.120;37.660;2023-05-16T01:42:12;10.53;62.57
64652;HTU21D;51062;45.120;37.660;2023-05-16T01:44:52;10.54;62.55
64652;HTU21D;51062;45.120;37.660;2023-05-16T01:47:21;10.54;62.47
64652;HTU21D;51062;45.120;37.660;2023-05-16T01:52:45;10.50;62.53
64652;HTU21D;51062;45.120;37.660;2023-05-16T01:55:22;10.45;62.56
64652;HTU21D;51062;45.120;37.660;2023-05-16T01:57:51;10.44;62.61
64652;HTU21D;51062;45.120;37.660;2023-05-16T02:00:19;10.43;62.67
64652;HTU21D;51062;45.120;37.660;2023-05-16T02:02:46;10.42;62.70
64652;HTU21D;51062;45.120;37.660;2023-05-16T02:05:15;10.42;62.73
64652;HTU21D;51062;45.120;37.660;2023-05-16T02:07:42;10.44;62.74
64652;HTU21D;51062;45.120;37.660;2023-05-16T02:10:09;10.42;62.76
64652;HTU21D;51062;45.120;37.660;2023-05-16T02:12:35;10.41;62.79
64652;HTU21D;51062;45.120;37.660;2023-05-16T02:15:02;10.41;62.91
64652;HTU21D;51062;45.120;37.660;2023-05-16T02:17:28;10.43;62.94
64652;HTU21D;51062;45.120;37.660;2023-05-16T02:19:54;10.48;62.92
64652;HTU21D;51062;45.120;37.660;2023-05-16T02:22:20;10.52;62.87
64652;HTU21D;51062;45.120;37.660;2023-05-16T02:24:46;10.55;62.92
64652;HTU21D;51062;45.120;37.660;2023-05-16T02:27:12;10.63;62.93
64652;HTU21D;51062;45.120;37.660;2023-05-16T02:29:38;10.72;62.91
64652;HTU21D;51062;45.120;37.660;2023-05-16T02:32:05;10.83;62.87
64652;HTU21D;51062;45.120;37.660;2023-05-16T02:34:31;10.94;62.86
64652;HTU21D;51062;45.120;37.660;2023-05-16T02:36:57;11.05;62.82
64652;HTU21D;51062;45.120;37.660;2023-05-16T02:39:23;11.20;62.78
64652;HTU21D;51062;45.120;37.660;2023-05-16T02:41:50;11.42;62.87
64652;HTU21D;51062;45.120;37.660;2023-05-16T02:44:16;11.90;62.80
64652;HTU21D;51062;45.120;37.660;2023-05-16T02:46:42;12.50;62.64
64652;HTU21D;51062;45.120;37.660;2023-05-16T02:49:09;13.09;62.95
64652;HTU21D;51062;45.120;37.660;2023-05-16T02:51:35;13.65;63.15
64652;HTU21D;51062;45.120;37.660;2023-05-16T02:54:01;14.18;63.23
64652;HTU21D;51062;45.120;37.660;2023-05-16T02:56:27;14.68;63.38
64652;HTU21D;51062;45.120;37.660;2023-05-16T02:58:54;15.16;63.52
64652;HTU21D;51062;45.120;37.660;2023-05-16T03:01:20;15.62;63.59
64652;HTU21D;51062;45.120;37.660;2023-05-16T03:03:47;16.04;63.53
64652;HTU21D;51062;45.120;37.660;2023-05-16T03:06:13;16.33;63.24
64652;HTU21D;51062;45.120;37.660;2023-05-16T03:08:39;16.55;63.29
64652;HTU21D;51062;45.120;37.660;2023-05-16T03:11:05;16.87;63.44
64652;HTU21D;51062;45.120;37.660;2023-05-16T03:13:31;17.25;63.47
64652;HTU21D;51062;45.120;37.660;2023-05-16T03:15:58;17.52;63.30
64652;HTU21D;51062;45.120;37.660;2023-05-16T03:18:24;17.83;63.30
64652;HTU21D;51062;45.120;37.660;2023-05-16T03:20:50;18.23;63.24
64652;HTU21D;51062;45.120;37.660;2023-05-16T03:23:22;18.61;62.89
64652;HTU21D;51062;45.120;37.660;2023-05-16T03:25:49;18.91;62.70
64652;HTU21D;51062;45.120;37.660;2023-05-16T03:28:19;19.23;62.52
64652;HTU21D;51062;45.120;37.660;2023-05-16T03:30:46;19.43;62.23
64652;HTU21D;51062;45.120;37.660;2023-05-16T03:33:12;19.32;61.89
64652;HTU21D;51062;45.120;37.660;2023-05-16T03:35:38;19.27;62.17
64652;HTU21D;51062;45.120;37.660;2023-05-16T03:38:05;19.41;62.47
64652;HTU21D;51062;45.120;37.660;2023-05-16T03:40:31;19.40;62.38
64652;HTU21D;51062;45.120;37.660;2023-05-16T03:42:58;19.20;62.44
64652;HTU21D;51062;45.120;37.660;2023-05-16T03:45:44;18.81;62.10
64652;HTU21D;51062;45.120;37.660;2023-05-16T03:48:10;18.55;61.88
64652;HTU21D;51062;45.120;37.660;2023-05-16T03:50:36;18.74;61.18
64652;HTU21D;51062;45.120;37.660;2023-05-16T03:53:02;18.92;60.37
64652;HTU21D;51062;45.120;37.660;2023-05-16T03:55:29;19.30;60.54
64652;HTU21D;51062;45.120;37.660;2023-05-16T03:57:56;19.57;59.96
64652;HTU21D;51062;45.120;37.660;2023-05-16T04:00:22;19.42;59.59
64652;HTU21D;51062;45.120;37.660;2023-05-16T04:02:48;19.11;59.69
64652;HTU21D;51062;45.120;37.660;2023-05-16T04:05:14;19.02;60.39
64652;HTU21D;51062;45.120;37.660;2023-05-16T04:07:40;19.36;60.54
64652;HTU21D;51062;45.120;37.660;2023-05-16T04:10:08;19.46;60.05
64652;HTU21D;51062;45.120;37.660;2023-05-16T04:12:34;19.25;59.76
64652;HTU21D;51062;45.120;37.660;2023-05-16T04:15:04;18.88;59.74
64652;HTU21D;51062;45.120;37.660;2023-05-16T04:17:32;18.53;59.86
64652;HTU21D;51062;45.120;37.660;2023-05-16T04:19:58;18.26;60.04
64652;HTU21D;51062;45.120;37.660;2023-05-16T04:22:25;18.24;60.41
64652;HTU21D;51062;45.120;37.660;2023-05-16T04:24:52;18.33;60.20
64652;HTU21D;51062;45.120;37.660;2023-05-16T04:27:18;18.48;60.32
64652;HTU21D;51062;45.120;37.660;2023-05-16T04:29:44;18.63;60.16
64652;HTU21D;51062;45.120;37.660;2023-05-16T04:32:10;18.63;59.95
64652;HTU21D;51062;45.120;37.660;2023-05-16T04:34:37;18.65;60.13
64652;HTU21D;51062;45.120;37.660;2023-05-16T04:37:04;19.26;60.99
64652;HTU21D;51062;45.120;37.660;2023-05-16T04:39:34;20.11;60.41
64652;HTU21D;51062;45.120;37.660;2023-05-16T04:42:01;20.66;59.90
64652;HTU21D;51062;45.120;37.660;2023-05-16T04:44:28;21.13;59.67
64652;HTU21D;51062;45.120;37.660;2023-05-16T04:46:54;21.66;59.34
64652;HTU21D;51062;45.120;37.660;2023-05-16T04:49:20;22.07;59.03
64652;HTU21D;51062;45.120;37.660;2023-05-16T04:51:47;22.64;59.00
64652;HTU21D;51062;45.120;37.660;2023-05-16T04:54:14;23.37;58.46
64652;HTU21D;51062;45.120;37.660;2023-05-16T04:56:40;23.98;57.90
64652;HTU21D;51062;45.120;37.660;2023-05-16T04:59:06;24.59;57.57
64652;HTU21D;51062;45.120;37.660;2023-05-16T05:01:32;25.14;56.90
64652;HTU21D;51062;45.120;37.660;2023-05-16T05:03:58;25.58;56.45
64652;HTU21D;51062;45.120;37.660;2023-05-16T05:06:24;25.96;55.76
64652;HTU21D;51062;45.120;37.660;2023-05-16T05:08:50;26.11;55.54
64652;HTU21D;51062;45.120;37.660;2023-05-16T05:11:16;26.34;55.33
64652;HTU21D;51062;45.120;37.660;2023-05-16T05:13:43;26.56;55.01
64652;HTU21D;51062;45.120;37.660;2023-05-16T05:16:09;26.69;54.80
64652;HTU21D;51062;45.120;37.660;2023-05-16T05:18:35;26.91;54.69
64652;HTU21D;51062;45.120;37.660;2023-05-16T05:21:01;27.25;54.22
64652;HTU21D;51062;45.120;37.660;2023-05-16T05:23:27;27.42;53.68
64652;HTU21D;51062;45.120;37.660;2023-05-16T05:25:54;27.45;53.46
64652;HTU21D;51062;45.120;37.660;2023-05-16T05:28:21;27.59;53.39
64652;HTU21D;51062;45.120;37.660;2023-05-16T05:30:47;27.82;53.16
64652;HTU21D;51062;45.120;37.660;2023-05-16T05:33:16;28.19;52.71
64652;HTU21D;51062;45.120;37.660;2023-05-16T05:35:45;28.50;52.01
64652;HTU21D;51062;45.120;37.660;2023-05-16T05:38:11;28.61;51.91
64652;HTU21D;51062;45.120;37.660;2023-05-16T05:40:37;28.75;51.41
64652;HTU21D;51062;45.120;37.660;2023-05-16T05:43:05;28.63;51.14
64652;HTU21D;51062;45.120;37.660;2023-05-16T05:45:31;28.76;51.19
64652;HTU21D;51062;45.120;37.660;2023-05-16T05:47:58;29.00;50.84
64652;HTU21D;51062;45.120;37.660;2023-05-16T05:50:24;29.16;50.43
64652;HTU21D;51062;45.120;37.660;2023-05-16T05:52:50;29.20;49.99
64652;HTU21D;51062;45.120;37.660;2023-05-16T05:55:16;29.30;49.93
64652;HTU21D;51062;45.120;37.660;2023-05-16T05:57:43;29.38;49.31
64652;HTU21D;51062;45.120;37.660;2023-05-16T06:00:09;29.30;48.99
64652;HTU21D;51062;45.120;37.660;2023-05-16T06:02:36;29.32;49.01
64652;HTU21D;51062;45.120;37.660;2023-05-16T06:05:02;29.56;48.63
64652;HTU21D;51062;45.120;37.660;2023-05-16T06:07:29;29.71;48.31
64652;HTU21D;51062;45.120;37.660;2023-05-16T06:09:55;29.85;48.13
64652;HTU21D;51062;45.120;37.660;2023-05-16T06:12:21;30.05;47.89
64652;HTU21D;51062;45.120;37.660;2023-05-16T06:14:48;30.17;47.47
64652;HTU21D;51062;45.120;37.660;2023-05-16T06:17:14;30.37;47.18
64652;HTU21D;51062;45.120;37.660;2023-05-16T13:29:46;24.06;47.75
64652;HTU21D;51062;45.120;37.660;2023-05-16T13:32:12;24.05;47.80
64652;HTU21D;51062;45.120;37.660;2023-05-16T13:34:38;24.02;47.88
64652;HTU21D;51062;45.120;37.660;2023-05-16T13:37:04;24.02;47.95
64652;HTU21D;51062;45.120;37.660;2023-05-16T13:39:30;23.99;48.02
64652;HTU21D;51062;45.120;37.660;2023-05-16T13:41:57;24.00;48.08
64652;HTU21D;51062;45.120;37.660;2023-05-16T13:44:24;23.99;48.08
64652;HTU21D;51062;45.120;37.660;2023-05-16T13:46:51;23.97;48.13
64652;HTU21D;51062;45.120;37.660;2023-05-16T13:49:17;23.94;48.19
64652;HTU21D;51062;45.120;37.660;2023-05-16T13:51:44;23.94;48.22
64652;HTU21D;51062;45.120;37.660;2023-05-16T13:54:10;23.92;48.28
64652;HTU21D;51062;45.120;37.660;2023-05-16T13:56:36;23.90;48.32
64652;HTU21D;51062;45.120;37.660;2023-05-16T13:59:03;23.87;48.38
64652;HTU21D;51062;45.120;37.660;2023-05-16T14:01:29;23.84;48.43
64652;HTU21D;51062;45.120;37.660;2023-05-16T14:03:56;23.82;48.50
64652;HTU21D;51062;45.120;37.660;2023-05-16T14:06:22;23.82;48.53
64652;HTU21D;51062;45.120;37.660;2023-05-16T14:08:48;23.79;48.55
64652;HTU21D;51062;45.120;37.660;2023-05-16T14:11:15;23.76;48.63
64652;HTU21D;51062;45.120;37.660;2023-05-16T14:13:44;23.72;48.66
64652;HTU21D;51062;45.120;37.660;2023-05-16T14:16:11;23.69;48.70
64652;HTU21D;51062;45.120;37.660;2023-05-16T14:18:37;23.67;48.75
64652;HTU21D;51062;45.120;37.660;2023-05-16T14:21:04;23.64;48.80
64652;HTU21D;51062;45.120;37.660;2023-05-16T14:23:30;23.60;48.86
64652;HTU21D;51062;45.120;37.660;2023-05-16T14:25:56;23.57;48.90
64652;HTU21D;51062;45.120;37.660;2023-05-16T14:28:22;23.55;48.93
64652;HTU21D;51062;45.120;37.660;2023-05-16T14:30:48;23.51;49.00
64652;HTU21D;51062;45.120;37.660;2023-05-16T14:33:15;23.45;49.06
64652;HTU21D;51062;45.120;37.660;2023-05-16T14:35:41;23.42;49.11
64652;HTU21D;51062;45.120;37.660;2023-05-16T14:38:07;23.39;49.18
64652;HTU21D;51062;45.120;37.660;2023-05-16T14:40:34;23.34;49.24
64652;HTU21D;51062;45.120;37.660;2023-05-16T14:43:01;23.30;49.31
64652;HTU21D;51062;45.120;37.660;2023-05-16T14:45:29;23.26;49.34
64652;HTU21D;51062;45.120;37.660;2023-05-16T14:47:55;23.24;49.40
64652;HTU21D;51062;45.120;37.660;2023-05-16T14:50:21;23.21;49.47
64652;HTU21D;51062;45.120;37.660;2023-05-16T14:52:47;23.17;49.51
64652;HTU21D;51062;45.120;37.660;2023-05-16T14:55:14;23.15;49.59
64652;HTU21D;51062;45.120;37.660;2023-05-16T14:57:40;23.10;49.65
64652;HTU21D;51062;45.120;37.660;2023-05-16T15:00:07;23.05;49.74
64652;HTU21D;51062;45.120;37.660;2023-05-16T15:02:35;22.98;49.85
64652;HTU21D;51062;45.120;37.660;2023-05-16T15:05:01;22.93;49.94
64652;HTU21D;51062;45.120;37.660;2023-05-16T15:07:28;22.91;50.00
64652;HTU21D;51062;45.120;37.660;2023-05-16T15:09:54;22.84;50.07
64652;HTU21D;51062;45.120;37.660;2023-05-16T15:12:21;22.78;50.15
64652;HTU21D;51062;45.120;37.660;2023-05-16T15:14:47;22.72;50.24
64652;HTU21D;51062;45.120;37.660;2023-05-16T15:17:13;22.66;50.33
64652;HTU21D;51062;45.120;37.660;2023-05-16T15:19:40;22.56;50.44
64652;HTU21D;51062;45.120;37.660;2023-05-16T15:22:06;22.48;50.59
64652;HTU21D;51062;45.120;37.660;2023-05-16T15:24:33;22.41;50.69
64652;HTU21D;51062;45.120;37.660;2023-05-16T15:27:00;22.32;50.76
64652;HTU21D;51062;45.120;37.660;2023-05-16T15:29:26;22.25;50.86
64652;HTU21D;51062;45.120;37.660;2023-05-16T15:31:52;22.17;50.98
64652;HTU21D;51062;45.120;37.660;2023-05-16T15:34:18;22.09;51.08
64652;HTU21D;51062;45.120;37.660;2023-05-16T15:36:44;22.03;51.17
64652;HTU21D;51062;45.120;37.660;2023-05-16T15:39:11;21.94;51.31
64652;HTU21D;51062;45.120;37.660;2023-05-16T15:41:37;21.83;51.46
64652;HTU21D;51062;45.120;37.660;2023-05-16T15:44:03;21.70;51.65
64652;HTU21D;51062;45.120;37.660;2023-05-16T15:46:30;21.60;51.81
64652;HTU21D;51062;45.120;37.660;2023-05-16T15:48:57;21.49;51.96
64652;HTU21D;51062;45.120;37.660;2023-05-16T15:51:24;21.39;52.07
64652;HTU21D;51062;45.120;37.660;2023-05-16T15:53:51;21.29;52.17
64652;HTU21D;51062;45.120;37.660;2023-05-16T15:56:17;21.20;52.30
64652;HTU21D;51062;45.120;37.660;2023-05-16T15:58:43;21.08;52.43
64652;HTU21D;51062;45.120;37.660;2023-05-16T16:01:11;20.96;52.58
64652;HTU21D;51062;45.120;37.660;2023-05-16T16:03:37;20.89;52.72
64652;HTU21D;51062;45.120;37.660;2023-05-16T16:06:03;20.78;52.89
64652;HTU21D;51062;45.120;37.660;2023-05-16T16:08:30;20.70;53.01
64652;HTU21D;51062;45.120;37.660;2023-05-16T16:10:56;20.61;53.13
64652;HTU21D;51062;45.120;37.660;2023-05-16T16:13:22;20.51;53.27
64652;HTU21D;51062;45.120;37.660;2023-05-16T16:15:49;20.43;53.39
64652;HTU21D;51062;45.120;37.660;2023-05-16T16:18:15;20.33;53.50
64652;HTU21D;51062;45.120;37.660;2023-05-16T16:20:41;20.22;53.62
64652;HTU21D;51062;45.120;37.660;2023-05-16T16:23:08;20.12;53.76
64652;HTU21D;51062;45.120;37.660;2023-05-16T16:25:34;20.02;53.90
64652;HTU21D;51062;45.120;37.660;2023-05-16T16:28:00;19.94;54.00
64652;HTU21D;51062;45.120;37.660;2023-05-16T16:30:26;19.84;54.13
64652;HTU21D;51062;45.120;37.660;2023-05-16T16:32:53;19.74;54.23
64652;HTU21D;51062;45.120;37.660;2023-05-16T16:35:19;19.65;54.37
64652;HTU21D;51062;45.120;37.660;2023-05-16T16:37:45;19.54;54.49
64652;HTU21D;51062;45.120;37.660;2023-05-16T16:40:13;19.46;54.62
64652;HTU21D;51062;45.120;37.660;2023-05-16T16:42:39;19.36;54.71
64652;HTU21D;51062;45.120;37.660;2023-05-16T16:45:06;19.27;54.83
64652;HTU21D;51062;45.120;37.660;2023-05-16T16:47:33;19.17;54.95
64652;HTU21D;51062;45.120;37.660;2023-05-16T16:49:59;19.07;55.09
64652;HTU21D;51062;45.120;37.660;2023-05-16T16:52:26;18.98;55.19
64652;HTU21D;51062;45.120;37.660;2023-05-16T16:54:53;18.92;55.26
64652;HTU21D;51062;45.120;37.660;2023-05-16T16:57:19;18.83;55.34
64652;HTU21D;51062;45.120;37.660;2023-05-16T16:59:45;18.74;55.45
64652;HTU21D;51062;45.120;37.660;2023-05-16T17:02:12;18.67;55.57
64652;HTU21D;51062;45.120;37.660;2023-05-16T17:04:38;18.59;55.66
64652;HTU21D;51062;45.120;37.660;2023-05-16T17:07:05;18.52;55.75
64652;HTU21D;51062;45.120;37.660;2023-05-16T17:09:34;18.42;55.86
64652;HTU21D;51062;45.120;37.660;2023-05-16T17:12:01;18.35;55.97
64652;HTU21D;51062;45.120;37.660;2023-05-16T17:14:33;18.26;56.07
64652;HTU21D;51062;45.120;37.660;2023-05-16T17:16:59;18.19;56.23
64652;HTU21D;51062;45.120;37.660;2023-05-16T17:19:26;18.11;56.36
64652;HTU21D;51062;45.120;37.660;2023-05-16T17:21:52;18.07;56.44
64652;HTU21D;51062;45.120;37.660;2023-05-16T17:24:18;18.02;56.48
64652;HTU21D;51062;45.120;37.660;2023-05-16T17:26:44;17.94;56.57
64652;HTU21D;51062;45.120;37.660;2023-05-16T17:29:10;17.89;56.66
64652;HTU21D;51062;45.120;37.660;2023-05-16T17:31:36;17.83;56.74
64652;HTU21D;51062;45.120;37.660;2023-05-16T17:34:02;17.78;56.81
64652;HTU21D;51062;45.120;37.660;2023-05-16T17:36:28;0.00;0.00
64652;HTU21D;51062;45.120;37.660;2023-05-16T17:38:55;17.67;56.97
64652;HTU21D;51062;45.120;37.660;2023-05-16T17:41:23;17.60;57.06
64652;HTU21D;51062;45.120;37.660;2023-05-16T17:43:49;17.54;57.18
64652;HTU21D;51062;45.120;37.660;2023-05-16T17:46:15;17.50;57.26
64652;HTU21D;51062;45.120;37.660;2023-05-16T17:48:42;17.44;57.35
64652;HTU21D;51062;45.120;37.660;2023-05-16T17:51:09;17.39;57.41
64652;HTU21D;51062;45.120;37.660;2023-05-16T17:53:35;17.35;57.47
64652;HTU21D;51062;45.120;37.660;2023-05-16T17:56:02;17.31;57.54
64652;HTU21D;51062;45.120;37.660;2023-05-16T17:58:28;17.24;57.64
64652;HTU21D;51062;45.120;37.660;2023-05-16T18:00:54;17.21;57.71
64652;HTU21D;51062;45.120;37.660;2023-05-16T18:03:20;17.16;57.80
64652;HTU21D;51062;45.120;37.660;2023-05-16T18:05:46;17.11;57.86
64652;HTU21D;51062;45.120;37.660;2023-05-16T18:08:14;17.07;57.94
64652;HTU21D;51062;45.120;37.660;2023-05-16T18:10:40;17.02;58.02
64652;HTU21D;51062;45.120;37.660;2023-05-16T18:13:06;16.96;58.09
64652;HTU21D;51062;45.120;37.660;2023-05-16T18:15:32;16.91;58.17
64652;HTU21D;51062;45.120;37.660;2023-05-16T18:18:01;16.87;58.22
64652;HTU21D;51062;45.120;37.660;2023-05-16T18:20:27;16.81;58.31
64652;HTU21D;51062;45.120;37.660;2023-05-16T18:22:53;16.76;58.37
64652;HTU21D;51062;45.120;37.660;2023-05-16T18:25:19;16.70;58.47
64652;HTU21D;51062;45.120;37.660;2023-05-16T18:27:46;16.64;58.56
64652;HTU21D;51062;45.120;37.660;2023-05-16T18:30:12;16.58;58.65
64652;HTU21D;51062;45.120;37.660;2023-05-16T18:32:39;16.55;58.74
64652;HTU21D;51062;45.120;37.660;2023-05-16T18:35:05;16.51;58.79
64652;HTU21D;51062;45.120;37.660;2023-05-16T18:37:32;16.48;58.85
64652;HTU21D;51062;45.120;37.660;2023-05-16T18:39:58;16.43;58.91
64652;HTU21D;51062;45.120;37.660;2023-05-16T18:42:24;16.39;59.00
64652;HTU21D;51062;45.120;37.660;2023-05-16T18:44:53;16.36;59.08
64652;HTU21D;51062;45.120;37.660;2023-05-16T18:47:19;16.32;59.16
64652;HTU21D;51062;45.120;37.660;2023-05-16T18:49:45;16.29;59.23
64652;HTU21D;51062;45.120;37.660;2023-05-16T18:52:12;16.29;59.28
64652;HTU21D;51062;45.120;37.660;2023-05-16T18:54:38;16.26;59.32
64652;HTU21D;51062;45.120;37.660;2023-05-16T18:57:05;16.25;59.34
64652;HTU21D;51062;45.120;37.660;2023-05-16T18:59:32;16.20;59.38
64652;HTU21D;51062;45.120;37.660;2023-05-16T19:01:59;16.17;59.45
64652;HTU21D;51062;45.120;37.660;2023-05-16T19:04:25;16.14;59.51
64652;HTU21D;51062;45.120;37.660;2023-05-16T19:06:52;16.10;59.56
64652;HTU21D;51062;45.120;37.660;2023-05-16T19:09:21;16.07;59.57
64652;HTU21D;51062;45.120;37.660;2023-05-16T19:11:48;16.03;59.62
64652;HTU21D;51062;45.120;37.660;2023-05-16T19:14:14;15.99;59.67
64652;HTU21D;51062;45.120;37.660;2023-05-16T19:16:40;15.93;59.77
64652;HTU21D;51062;45.120;37.660;2023-05-16T19:19:06;15.89;59.82
64652;HTU21D;51062;45.120;37.660;2023-05-16T19:21:33;15.83;59.89
64652;HTU21D;51062;45.120;37.660;2023-05-16T19:24:01;15.81;59.93
64652;HTU21D;51062;45.120;37.660;2023-05-16T19:26:28;15.76;59.96
64652;HTU21D;51062;45.120;37.660;2023-05-16T19:28:55;15.74;59.97
64652;HTU21D;51062;45.120;37.660;2023-05-16T19:31:23;15.69;60.00
64652;HTU21D;51062;45.120;37.660;2023-05-16T19:33:49;15.63;60.09
64652;HTU21D;51062;45.120;37.660;2023-05-16T19:36:15;15.60;60.18
64652;HTU21D;51062;45.120;37.660;2023-05-16T19:38:42;15.57;60.23
64652;HTU21D;51062;45.120;37.660;2023-05-16T19:41:08;15.54;60.26
64652;HTU21D;51062;45.120;37.660;2023-05-16T19:43:34;15.49;60.32
64652;HTU21D;51062;45.120;37.660;2023-05-16T19:46:00;15.44;60.37
64652;HTU21D;51062;45.120;37.660;2023-05-16T19:48:26;15.41;60.41
64652;HTU21D;51062;45.120;37.660;2023-05-16T19:50:53;15.39;60.44
64652;HTU21D;51062;45.120;37.660;2023-05-16T19:53:19;15.36;60.47
64652;HTU21D;51062;45.120;37.660;2023-05-16T19:55:45;15.33;60.51
64652;HTU21D;51062;45.120;37.660;2023-05-16T19:58:14;15.30;60.56
64652;HTU21D;51062;45.120;37.660;2023-05-16T20:00:41;15.27;60.57
64652;HTU21D;51062;45.120;37.660;2023-05-16T20:03:07;15.23;60.63
64652;HTU21D;51062;45.120;37.660;2023-05-16T20:05:33;15.17;60.73
64652;HTU21D;51062;45.120;37.660;2023-05-16T20:07:59;15.13;60.81
64652;HTU21D;51062;45.120;37.660;2023-05-16T20:10:25;15.10;60.88
64652;HTU21D;51062;45.120;37.660;2023-05-16T20:12:51;15.08;60.89
64652;HTU21D;51062;45.120;37.660;2023-05-16T20:15:17;15.07;60.94
64652;HTU21D;51062;45.120;37.660;2023-05-16T20:17:43;15.00;60.99
64652;HTU21D;51062;45.120;37.660;2023-05-16T20:20:10;14.95;61.07
64652;HTU21D;51062;45.120;37.660;2023-05-16T20:22:36;14.92;61.13
64652;HTU21D;51062;45.120;37.660;2023-05-16T20:25:05;14.89;61.18
64652;HTU21D;51062;45.120;37.660;2023-05-16T20:27:31;14.85;61.26
64652;HTU21D;51062;45.120;37.660;2023-05-16T20:29:57;14.82;61.30
64652;HTU21D;51062;45.120;37.660;2023-05-16T20:32:23;14.79;61.37
64652;HTU21D;51062;45.120;37.660;2023-05-16T20:34:50;14.74;61.41
64652;HTU21D;51062;45.120;37.660;2023-05-16T20:37:16;14.73;61.44
64652;HTU21D;51062;45.120;37.660;2023-05-16T20:39:42;14.70;61.48
64652;HTU21D;51062;45.120;37.660;2023-05-16T20:42:08;14.68;61.54
64652;HTU21D;51062;45.120;37.660;2023-05-16T20:44:38;14.65;61.54
64652;HTU21D;51062;45.120;37.660;2023-05-16T20:47:05;14.63;61.60
64652;HTU21D;51062;45.120;37.660;2023-05-16T20:49:32;14.59;61.65
64652;HTU21D;51062;45.120;37.660;2023-05-16T20:51:58;14.58;61.69
64652;HTU21D;51062;45.120;37.660;2023-05-16T20:54:24;14.57;61.71
64652;HTU21D;51062;45.120;37.660;2023-05-16T20:56:50;14.56;61.73
64652;HTU21D;51062;45.120;37.660;2023-05-16T20:59:16;14.55;61.73
64652;HTU21D;51062;45.120;37.660;2023-05-16T21:01:42;14.56;61.74
64652;HTU21D;51062;45.120;37.660;2023-05-16T21:04:08;14.56;61.71
64652;HTU21D;51062;45.120;37.660;2023-05-16T21:06:34;14.55;61.72
64652;HTU21D;51062;45.120;37.660;2023-05-16T21:09:00;14.55;61.74
64652;HTU21D;51062;45.120;37.660;2023-05-16T21:11:26;14.55;61.72
64652;HTU21D;51062;45.120;37.660;2023-05-16T21:13:53;14.53;61.76
64652;HTU21D;51062;45.120;37.660;2023-05-16T21:16:19;14.50;61.82
64652;HTU21D;51062;45.120;37.660;2023-05-16T21:18:45;14.47;61.89
64652;HTU21D;51062;45.120;37.660;2023-05-16T21:21:11;14.44;61.95
64652;HTU21D;51062;45.120;37.660;2023-05-16T21:23:37;14.40;61.99
64652;HTU21D;51062;45.120;37.660;2023-05-16T21:26:03;14.37;62.05
64652;HTU21D;51062;45.120;37.660;2023-05-16T21:28:30;14.35;62.08
64652;HTU21D;51062;45.120;37.660;2023-05-16T21:30:56;14.34;62.11
64652;HTU21D;51062;45.120;37.660;2023-05-16T21:33:22;14.29;62.15
64652;HTU21D;51062;45.120;37.660;2023-05-16T21:35:49;14.27;62.20
64652;HTU21D;51062;45.120;37.660;2023-05-16T21:38:17;14.25;62.23
64652;HTU21D;51062;45.120;37.660;2023-05-16T21:40:43;14.21;62.24
64652;HTU21D;51062;45.120;37.660;2023-05-16T21:43:09;14.18;62.32
64652;HTU21D;51062;45.120;37.660;2023-05-16T21:45:35;14.14;62.35
64652;HTU21D;51062;45.120;37.660;2023-05-16T21:48:01;14.12;62.41
64652;HTU21D;51062;45.120;37.660;2023-05-16T21:50:28;14.10;62.40
64652;HTU21D;51062;45.120;37.660;2023-05-16T21:52:54;14.07;62.42
64652;HTU21D;51062;45.120;37.660;2023-05-16T21:55:20;14.06;62.45
64652;HTU21D;51062;45.120;37.660;2023-05-16T21:57:46;14.05;62.41
64652;HTU21D;51062;45.120;37.660;2023-05-16T22:00:12;14.01;62.41
64652;HTU21D;51062;45.120;37.660;2023-05-16T22:02:39;13.97;62.47
64652;HTU21D;51062;45.120;37.660;2023-05-16T22:05:05;13.92;62.56
64652;HTU21D;51062;45.120;37.660;2023-05-16T22:07:31;13.90;62.63
64652;HTU21D;51062;45.120;37.660;2023-05-16T22:09:58;13.85;62.71
64652;HTU21D;51062;45.120;37.660;2023-05-16T22:12:25;13.85;62.73
64652;HTU21D;51062;45.120;37.660;2023-05-16T22:14:51;13.82;62.71
64652;HTU21D;51062;45.120;37.660;2023-05-16T22:17:18;13.80;62.78
64652;HTU21D;51062;45.120;37.660;2023-05-16T22:19:44;13.78;62.78